sensor_id;sensor_type;location;lat;lon;timestamp;P1;durP1;ratioP1;P2;durP2;ratioP2
583;SDS011;27024;54.068;12.116;2024-02-15T00:02:23;42.30;;;13.02;;
583;SDS011;27024;54.068;12.116;2024-02-15T00:04:50;46.25;;;13.43;;
583;SDS011;27024;54.068;12.116;2024-02-15T00:07:17;39.78;;;12.15;;
583;SDS011;27024;54.068;12.116;2024-02-15T00:09:44;43.03;;;13.18;;
583;SDS011;27024;54.068;12.116;2024-02-15T00:12:11;36.30;;;12.13;;
583;SDS011;27024;54.068;12.116;2024-02-15T00:14:39;35.95;;;11.60;;
583;SDS011;27024;54.068;12.116;2024-02-15T00:17:06;39.40;;;12.40;;
583;SDS011;27024;54.068;12.116;2024-02-15T00:19:33;36.83;;;11.80;;
583;SDS011;27024;54.068;12.116;2024-02-15T00:22:00;37.30;;;12.07;;
583;SDS011;27024;54.068;12.116;2024-02-15T00:24:28;38.58;;;12.13;;
583;SDS011;27024;54.068;12.116;2024-02-15T00:26:54;41.03;;;12.00;;
583;SDS011;27024;54.068;12.116;2024-02-15T00:29:22;36.15;;;11.63;;
583;SDS011;27024;54.068;12.116;2024-02-15T00:31:48;41.60;;;12.23;;
583;SDS011;27024;54.068;12.116;2024-02-15T00:34:16;43.40;;;12.77;;
583;SDS011;27024;54.068;12.116;2024-02-15T00:36:44;38.08;;;11.80;;
583;SDS011;27024;54.068;12.116;2024-02-15T00:39:11;39.38;;;12.02;;
583;SDS011;27024;54.068;12.116;2024-02-15T00:41:40;42.70;;;11.77;;
583;SDS011;27024;54.068;12.116;2024-02-15T00:44:09;40.35;;;11.60;;
583;SDS011;27024;54.068;12.116;2024-02-15T00:46:37;41.50;;;12.55;;
583;SDS011;27024;54.068;12.116;2024-02-15T00:49:05;44.38;;;12.32;;
583;SDS011;27024;54.068;12.116;2024-02-15T00:51:33;47.95;;;12.63;;
583;SDS011;27024;54.068;12.116;2024-02-15T00:54:03;41.50;;;11.75;;
583;SDS011;27024;54.068;12.116;2024-02-15T00:56:31;40.25;;;11.95;;
583;SDS011;27024;54.068;12.116;2024-02-15T00:58:59;41.17;;;12.13;;
583;SDS011;27024;54.068;12.116;2024-02-15T01:01:29;44.05;;;11.85;;
583;SDS011;27024;54.068;12.116;2024-02-15T01:03:57;39.53;;;11.35;;
583;SDS011;27024;54.068;12.116;2024-02-15T01:06:24;42.35;;;12.05;;
583;SDS011;27024;54.068;12.116;2024-02-15T01:08:51;40.47;;;11.48;;
583;SDS011;27024;54.068;12.116;2024-02-15T01:11:18;44.55;;;11.18;;
583;SDS011;27024;54.068;12.116;2024-02-15T01:13:45;49.35;;;12.32;;
583;SDS011;27024;54.068;12.116;2024-02-15T01:16:14;42.08;;;11.63;;
583;SDS011;27024;54.068;12.116;2024-02-15T01:18:42;42.08;;;10.95;;
583;SDS011;27024;54.068;12.116;2024-02-15T01:21:09;44.88;;;10.55;;
583;SDS011;27024;54.068;12.116;2024-02-15T01:23:38;47.58;;;12.00;;
583;SDS011;27024;54.068;12.116;2024-02-15T01:26:05;40.33;;;10.77;;
583;SDS011;27024;54.068;12.116;2024-02-15T01:28:32;43.50;;;12.18;;
583;SDS011;27024;54.068;12.116;2024-02-15T01:31:00;43.35;;;11.38;;
583;SDS011;27024;54.068;12.116;2024-02-15T01:33:28;48.53;;;11.48;;
583;SDS011;27024;54.068;12.116;2024-02-15T01:35:55;45.72;;;11.48;;
583;SDS011;27024;54.068;12.116;2024-02-15T01:38:22;47.22;;;11.65;;
583;SDS011;27024;54.068;12.116;2024-02-15T01:40:49;42.97;;;11.98;;
583;SDS011;27024;54.068;12.116;2024-02-15T01:43:16;40.08;;;10.93;;
583;SDS011;27024;54.068;12.116;2024-02-15T01:45:44;35.95;;;10.95;;
583;SDS011;27024;54.068;12.116;2024-02-15T01:48:14;48.38;;;10.95;;
583;SDS011;27024;54.068;12.116;2024-02-15T01:50:42;41.75;;;11.55;;
583;SDS011;27024;54.068;12.116;2024-02-15T01:53:10;42.75;;;10.75;;
583;SDS011;27024;54.068;12.116;2024-02-15T01:55:38;34.67;;;9.50;;
583;SDS011;27024;54.068;12.116;2024-02-15T01:58:06;34.70;;;10.43;;
583;SDS011;27024;54.068;12.116;2024-02-15T02:00:33;31.40;;;9.30;;
583;SDS011;27024;54.068;12.116;2024-02-15T02:03:03;35.85;;;9.57;;
583;SDS011;27024;54.068;12.116;2024-02-15T02:05:31;33.75;;;9.27;;
583;SDS011;27024;54.068;12.116;2024-02-15T02:07:58;32.70;;;8.80;;
583;SDS011;27024;54.068;12.116;2024-02-15T02:10:28;29.13;;;8.60;;
583;SDS011;27024;54.068;12.116;2024-02-15T02:13:00;34.33;;;9.05;;
583;SDS011;27024;54.068;12.116;2024-02-15T02:15:31;31.55;;;9.10;;
583;SDS011;27024;54.068;12.116;2024-02-15T02:17:59;34.70;;;9.18;;
583;SDS011;27024;54.068;12.116;2024-02-15T02:20:27;31.55;;;8.90;;
583;SDS011;27024;54.068;12.116;2024-02-15T02:22:55;33.75;;;9.00;;
583;SDS011;27024;54.068;12.116;2024-02-15T02:25:42;31.83;;;9.18;;
583;SDS011;27024;54.068;12.116;2024-02-15T02:28:11;30.92;;;8.23;;
583;SDS011;27024;54.068;12.116;2024-02-15T02:30:39;30.92;;;8.73;;
583;SDS011;27024;54.068;12.116;2024-02-15T02:33:12;27.73;;;8.27;;
583;SDS011;27024;54.068;12.116;2024-02-15T02:35:47;29.15;;;8.60;;
583;SDS011;27024;54.068;12.116;2024-02-15T02:38:15;27.58;;;8.63;;
583;SDS011;27024;54.068;12.116;2024-02-15T02:40:42;34.38;;;8.85;;
583;SDS011;27024;54.068;12.116;2024-02-15T02:43:09;31.27;;;8.45;;
583;SDS011;27024;54.068;12.116;2024-02-15T02:45:36;28.45;;;8.43;;
583;SDS011;27024;54.068;12.116;2024-02-15T02:48:04;30.55;;;8.63;;
583;SDS011;27024;54.068;12.116;2024-02-15T02:50:32;29.52;;;9.00;;
583;SDS011;27024;54.068;12.116;2024-02-15T02:52:59;30.75;;;8.70;;
583;SDS011;27024;54.068;12.116;2024-02-15T02:55:26;29.95;;;8.52;;
583;SDS011;27024;54.068;12.116;2024-02-15T02:57:57;26.80;;;8.68;;
583;SDS011;27024;54.068;12.116;2024-02-15T03:00:24;27.63;;;8.60;;
583;SDS011;27024;54.068;12.116;2024-02-15T03:02:51;27.30;;;7.97;;
583;SDS011;27024;54.068;12.116;2024-02-15T03:05:18;30.25;;;8.95;;
583;SDS011;27024;54.068;12.116;2024-02-15T03:07:48;30.38;;;9.32;;
583;SDS011;27024;54.068;12.116;2024-02-15T03:10:15;31.08;;;9.20;;
583;SDS011;27024;54.068;12.116;2024-02-15T03:12:43;28.73;;;8.45;;
583;SDS011;27024;54.068;12.116;2024-02-15T03:15:15;29.50;;;8.65;;
583;SDS011;27024;54.068;12.116;2024-02-15T03:17:45;30.77;;;8.85;;
583;SDS011;27024;54.068;12.116;2024-02-15T03:20:13;29.92;;;8.85;;
583;SDS011;27024;54.068;12.116;2024-02-15T03:22:54;31.00;;;8.68;;
583;SDS011;27024;54.068;12.116;2024-02-15T03:25:23;25.45;;;7.75;;
583;SDS011;27024;54.068;12.116;2024-02-15T03:27:51;29.45;;;7.60;;
583;SDS011;27024;54.068;12.116;2024-02-15T03:30:20;26.83;;;7.38;;
583;SDS011;27024;54.068;12.116;2024-02-15T03:32:48;24.40;;;7.53;;
583;SDS011;27024;54.068;12.116;2024-02-15T03:35:18;23.23;;;7.55;;
583;SDS011;27024;54.068;12.116;2024-02-15T03:37:46;23.85;;;7.15;;
583;SDS011;27024;54.068;12.116;2024-02-15T03:40:13;20.80;;;6.43;;
583;SDS011;27024;54.068;12.116;2024-02-15T03:42:41;22.67;;;6.50;;
583;SDS011;27024;54.068;12.116;2024-02-15T03:45:08;19.88;;;6.32;;
583;SDS011;27024;54.068;12.116;2024-02-15T03:47:36;20.48;;;6.50;;
583;SDS011;27024;54.068;12.116;2024-02-15T03:52:32;21.02;;;5.95;;
583;SDS011;27024;54.068;12.116;2024-02-15T03:54:59;18.52;;;5.68;;
583;SDS011;27024;54.068;12.116;2024-02-15T03:57:26;17.98;;;5.80;;
583;SDS011;27024;54.068;12.116;2024-02-15T03:59:53;20.83;;;6.18;;
583;SDS011;27024;54.068;12.116;2024-02-15T04:02:21;19.90;;;5.85;;
583;SDS011;27024;54.068;12.116;2024-02-15T04:04:49;16.48;;;5.70;;
583;SDS011;27024;54.068;12.116;2024-02-15T04:07:19;22.13;;;6.60;;
583;SDS011;27024;54.068;12.116;2024-02-15T04:09:46;17.40;;;6.07;;
583;SDS011;27024;54.068;12.116;2024-02-15T04:12:13;17.90;;;6.07;;
583;SDS011;27024;54.068;12.116;2024-02-15T04:14:41;20.08;;;6.35;;
583;SDS011;27024;54.068;12.116;2024-02-15T04:17:12;18.60;;;5.78;;
583;SDS011;27024;54.068;12.116;2024-02-15T04:19:46;19.10;;;5.82;;
583;SDS011;27024;54.068;12.116;2024-02-15T04:22:14;19.33;;;5.75;;
583;SDS011;27024;54.068;12.116;2024-02-15T04:24:43;23.60;;;6.20;;
583;SDS011;27024;54.068;12.116;2024-02-15T04:27:12;20.40;;;5.82;;
583;SDS011;27024;54.068;12.116;2024-02-15T04:29:41;18.25;;;5.50;;
583;SDS011;27024;54.068;12.116;2024-02-15T04:32:10;22.58;;;6.30;;
583;SDS011;27024;54.068;12.116;2024-02-15T04:34:42;23.80;;;6.93;;
583;SDS011;27024;54.068;12.116;2024-02-15T04:37:09;21.25;;;6.15;;
583;SDS011;27024;54.068;12.116;2024-02-15T04:39:36;19.27;;;6.22;;
583;SDS011;27024;54.068;12.116;2024-02-15T04:42:03;20.85;;;6.07;;
583;SDS011;27024;54.068;12.116;2024-02-15T04:44:33;19.30;;;6.15;;
583;SDS011;27024;54.068;12.116;2024-02-15T04:47:02;21.95;;;6.30;;
583;SDS011;27024;54.068;12.116;2024-02-15T04:49:32;19.20;;;6.45;;
583;SDS011;27024;54.068;12.116;2024-02-15T04:51:59;20.83;;;6.35;;
583;SDS011;27024;54.068;12.116;2024-02-15T04:54:30;23.85;;;7.22;;
583;SDS011;27024;54.068;12.116;2024-02-15T04:56:59;26.48;;;7.00;;
583;SDS011;27024;54.068;12.116;2024-02-15T04:59:27;21.95;;;6.50;;
583;SDS011;27024;54.068;12.116;2024-02-15T05:01:56;24.45;;;7.15;;
583;SDS011;27024;54.068;12.116;2024-02-15T05:04:24;23.08;;;7.18;;
583;SDS011;27024;54.068;12.116;2024-02-15T05:06:51;25.10;;;7.10;;
583;SDS011;27024;54.068;12.116;2024-02-15T05:09:20;24.30;;;6.68;;
583;SDS011;27024;54.068;12.116;2024-02-15T05:11:46;19.92;;;6.63;;
583;SDS011;27024;54.068;12.116;2024-02-15T05:14:15;23.40;;;7.22;;
583;SDS011;27024;54.068;12.116;2024-02-15T05:16:46;21.73;;;6.95;;
583;SDS011;27024;54.068;12.116;2024-02-15T05:19:16;24.88;;;7.40;;
583;SDS011;27024;54.068;12.116;2024-02-15T05:21:44;25.00;;;7.68;;
583;SDS011;27024;54.068;12.116;2024-02-15T05:24:13;24.10;;;7.43;;
583;SDS011;27024;54.068;12.116;2024-02-15T05:26:44;21.95;;;6.95;;
583;SDS011;27024;54.068;12.116;2024-02-15T05:29:19;22.38;;;6.80;;
583;SDS011;27024;54.068;12.116;2024-02-15T05:31:47;23.00;;;7.07;;
583;SDS011;27024;54.068;12.116;2024-02-15T05:34:17;25.42;;;6.55;;
583;SDS011;27024;54.068;12.116;2024-02-15T05:36:44;21.58;;;6.38;;
583;SDS011;27024;54.068;12.116;2024-02-15T05:39:11;21.73;;;6.40;;
583;SDS011;27024;54.068;12.116;2024-02-15T05:41:41;23.45;;;6.22;;
583;SDS011;27024;54.068;12.116;2024-02-15T05:44:08;25.65;;;6.72;;
583;SDS011;27024;54.068;12.116;2024-02-15T05:46:36;24.95;;;6.60;;
583;SDS011;27024;54.068;12.116;2024-02-15T05:49:05;22.67;;;6.53;;
583;SDS011;27024;54.068;12.116;2024-02-15T05:51:32;26.08;;;6.82;;
583;SDS011;27024;54.068;12.116;2024-02-15T05:54:00;23.52;;;6.68;;
583;SDS011;27024;54.068;12.116;2024-02-15T05:56:28;24.42;;;7.47;;
583;SDS011;27024;54.068;12.116;2024-02-15T05:58:56;25.70;;;6.93;;
583;SDS011;27024;54.068;12.116;2024-02-15T06:01:23;24.55;;;7.00;;
583;SDS011;27024;54.068;12.116;2024-02-15T06:03:51;24.70;;;6.55;;
583;SDS011;27024;54.068;12.116;2024-02-15T06:06:21;24.05;;;7.07;;
583;SDS011;27024;54.068;12.116;2024-02-15T06:08:50;25.50;;;7.55;;
583;SDS011;27024;54.068;12.116;2024-02-15T06:11:20;22.65;;;6.55;;
583;SDS011;27024;54.068;12.116;2024-02-15T06:13:47;31.13;;;7.30;;
583;SDS011;27024;54.068;12.116;2024-02-15T06:16:14;26.35;;;7.53;;
583;SDS011;27024;54.068;12.116;2024-02-15T06:18:41;33.25;;;8.15;;
583;SDS011;27024;54.068;12.116;2024-02-15T06:21:09;26.25;;;7.15;;
583;SDS011;27024;54.068;12.116;2024-02-15T06:23:36;26.58;;;7.85;;
583;SDS011;27024;54.068;12.116;2024-02-15T06:26:03;23.45;;;6.43;;
583;SDS011;27024;54.068;12.116;2024-02-15T06:28:31;27.95;;;7.60;;
583;SDS011;27024;54.068;12.116;2024-02-15T06:31:16;27.13;;;7.18;;
583;SDS011;27024;54.068;12.116;2024-02-15T06:34:02;29.45;;;7.53;;
583;SDS011;27024;54.068;12.116;2024-02-15T06:36:52;27.63;;;7.65;;
583;SDS011;27024;54.068;12.116;2024-02-15T06:39:52;30.13;;;7.28;;
583;SDS011;27024;54.068;12.116;2024-02-15T06:42:19;25.27;;;7.05;;
583;SDS011;27024;54.068;12.116;2024-02-15T06:44:47;25.25;;;6.90;;
583;SDS011;27024;54.068;12.116;2024-02-15T06:47:15;25.05;;;7.45;;
583;SDS011;27024;54.068;12.116;2024-02-15T06:49:47;27.75;;;7.53;;
583;SDS011;27024;54.068;12.116;2024-02-15T06:52:18;26.30;;;6.95;;
583;SDS011;27024;54.068;12.116;2024-02-15T06:54:45;23.80;;;6.55;;
583;SDS011;27024;54.068;12.116;2024-02-15T06:57:12;27.65;;;7.60;;
583;SDS011;27024;54.068;12.116;2024-02-15T06:59:40;27.38;;;6.28;;
583;SDS011;27024;54.068;12.116;2024-02-15T07:02:09;31.25;;;7.35;;
583;SDS011;27024;54.068;12.116;2024-02-15T07:04:36;29.17;;;7.10;;
583;SDS011;27024;54.068;12.116;2024-02-15T07:07:03;27.27;;;7.25;;
583;SDS011;27024;54.068;12.116;2024-02-15T07:09:31;30.50;;;7.50;;
583;SDS011;27024;54.068;12.116;2024-02-15T07:11:59;28.60;;;7.45;;
583;SDS011;27024;54.068;12.116;2024-02-15T07:14:26;29.27;;;7.40;;
583;SDS011;27024;54.068;12.116;2024-02-15T07:16:56;30.33;;;7.25;;
583;SDS011;27024;54.068;12.116;2024-02-15T07:19:26;33.72;;;8.20;;
583;SDS011;27024;54.068;12.116;2024-02-15T07:21:54;24.30;;;6.43;;
583;SDS011;27024;54.068;12.116;2024-02-15T07:24:26;24.17;;;6.35;;
583;SDS011;27024;54.068;12.116;2024-02-15T07:27:11;25.33;;;6.55;;
583;SDS011;27024;54.068;12.116;2024-02-15T07:29:41;23.58;;;6.13;;
583;SDS011;27024;54.068;12.116;2024-02-15T07:32:09;24.75;;;6.22;;
583;SDS011;27024;54.068;12.116;2024-02-15T07:34:36;20.67;;;5.65;;
583;SDS011;27024;54.068;12.116;2024-02-15T07:37:03;22.02;;;5.72;;
583;SDS011;27024;54.068;12.116;2024-02-15T07:39:30;18.73;;;5.05;;
583;SDS011;27024;54.068;12.116;2024-02-15T07:41:58;19.77;;;5.22;;
583;SDS011;27024;54.068;12.116;2024-02-15T07:44:25;17.38;;;5.30;;
583;SDS011;27024;54.068;12.116;2024-02-15T07:47:05;17.17;;;4.60;;
583;SDS011;27024;54.068;12.116;2024-02-15T07:49:41;18.05;;;5.35;;
583;SDS011;27024;54.068;12.116;2024-02-15T07:52:12;18.42;;;5.18;;
583;SDS011;27024;54.068;12.116;2024-02-15T07:54:40;17.95;;;5.13;;
583;SDS011;27024;54.068;12.116;2024-02-15T07:57:07;18.38;;;5.15;;
583;SDS011;27024;54.068;12.116;2024-02-15T07:59:36;16.58;;;5.03;;
583;SDS011;27024;54.068;12.116;2024-02-15T08:02:06;18.58;;;5.25;;
583;SDS011;27024;54.068;12.116;2024-02-15T08:04:33;19.98;;;5.78;;
583;SDS011;27024;54.068;12.116;2024-02-15T08:07:07;16.60;;;4.82;;
583;SDS011;27024;54.068;12.116;2024-02-15T08:09:37;20.45;;;5.25;;
583;SDS011;27024;54.068;12.116;2024-02-15T08:12:09;18.45;;;4.95;;
583;SDS011;27024;54.068;12.116;2024-02-15T08:14:36;18.60;;;5.13;;
583;SDS011;27024;54.068;12.116;2024-02-15T08:17:04;21.00;;;6.05;;
583;SDS011;27024;54.068;12.116;2024-02-15T08:19:32;18.65;;;5.63;;
583;SDS011;27024;54.068;12.116;2024-02-15T08:22:03;20.50;;;5.78;;
583;SDS011;27024;54.068;12.116;2024-02-15T08:24:32;23.23;;;6.30;;
583;SDS011;27024;54.068;12.116;2024-02-15T08:26:59;21.88;;;6.47;;
583;SDS011;27024;54.068;12.116;2024-02-15T08:29:26;24.08;;;6.45;;
583;SDS011;27024;54.068;12.116;2024-02-15T08:31:53;23.70;;;6.40;;
583;SDS011;27024;54.068;12.116;2024-02-15T08:34:21;24.42;;;6.25;;
583;SDS011;27024;54.068;12.116;2024-02-15T08:36:49;23.60;;;6.93;;
583;SDS011;27024;54.068;12.116;2024-02-15T08:39:17;27.27;;;7.22;;
583;SDS011;27024;54.068;12.116;2024-02-15T08:41:45;27.55;;;7.47;;
583;SDS011;27024;54.068;12.116;2024-02-15T08:44:14;30.92;;;8.77;;
583;SDS011;27024;54.068;12.116;2024-02-15T08:46:43;28.83;;;8.10;;
583;SDS011;27024;54.068;12.116;2024-02-15T08:49:11;24.88;;;7.28;;
583;SDS011;27024;54.068;12.116;2024-02-15T08:51:40;32.13;;;8.02;;
583;SDS011;27024;54.068;12.116;2024-02-15T08:54:09;37.15;;;8.43;;
583;SDS011;27024;54.068;12.116;2024-02-15T08:56:37;31.83;;;8.07;;
583;SDS011;27024;54.068;12.116;2024-02-15T08:59:04;34.47;;;8.88;;
583;SDS011;27024;54.068;12.116;2024-02-15T09:01:31;30.42;;;8.30;;
583;SDS011;27024;54.068;12.116;2024-02-15T09:03:58;32.78;;;8.48;;
583;SDS011;27024;54.068;12.116;2024-02-15T09:06:25;32.58;;;8.40;;
583;SDS011;27024;54.068;12.116;2024-02-15T09:08:53;32.60;;;8.07;;
583;SDS011;27024;54.068;12.116;2024-02-15T09:11:20;34.47;;;9.27;;
583;SDS011;27024;54.068;12.116;2024-02-15T09:13:47;28.83;;;8.50;;
583;SDS011;27024;54.068;12.116;2024-02-15T09:16:18;28.25;;;7.25;;
583;SDS011;27024;54.068;12.116;2024-02-15T09:18:47;31.20;;;8.05;;
583;SDS011;27024;54.068;12.116;2024-02-15T09:21:15;31.42;;;8.90;;
583;SDS011;27024;54.068;12.116;2024-02-15T09:23:42;33.65;;;9.77;;
583;SDS011;27024;54.068;12.116;2024-02-15T09:26:09;31.95;;;9.93;;
583;SDS011;27024;54.068;12.116;2024-02-15T09:28:36;33.15;;;10.25;;
583;SDS011;27024;54.068;12.116;2024-02-15T09:31:03;34.78;;;9.68;;
583;SDS011;27024;54.068;12.116;2024-02-15T09:33:30;31.33;;;9.23;;
583;SDS011;27024;54.068;12.116;2024-02-15T09:35:57;45.22;;;11.65;;
583;SDS011;27024;54.068;12.116;2024-02-15T09:38:25;40.50;;;11.25;;
583;SDS011;27024;54.068;12.116;2024-02-15T09:40:52;43.42;;;11.80;;
583;SDS011;27024;54.068;12.116;2024-02-15T09:43:21;38.47;;;11.45;;
583;SDS011;27024;54.068;12.116;2024-02-15T09:45:53;36.40;;;10.73;;
583;SDS011;27024;54.068;12.116;2024-02-15T09:48:20;38.45;;;10.60;;
583;SDS011;27024;54.068;12.116;2024-02-15T09:50:52;40.45;;;11.65;;
583;SDS011;27024;54.068;12.116;2024-02-15T09:53:21;42.95;;;11.60;;
583;SDS011;27024;54.068;12.116;2024-02-15T09:55:55;38.45;;;11.25;;
583;SDS011;27024;54.068;12.116;2024-02-15T09:58:30;40.63;;;11.88;;
583;SDS011;27024;54.068;12.116;2024-02-15T10:01:01;34.97;;;11.32;;
583;SDS011;27024;54.068;12.116;2024-02-15T10:03:37;39.38;;;11.27;;
583;SDS011;27024;54.068;12.116;2024-02-15T10:06:08;40.15;;;10.98;;
583;SDS011;27024;54.068;12.116;2024-02-15T10:08:35;32.38;;;10.23;;
583;SDS011;27024;54.068;12.116;2024-02-15T10:11:08;30.60;;;10.60;;
583;SDS011;27024;54.068;12.116;2024-02-15T10:13:36;30.45;;;10.00;;
583;SDS011;27024;54.068;12.116;2024-02-15T10:16:13;28.48;;;10.25;;
583;SDS011;27024;54.068;12.116;2024-02-15T10:18:45;30.60;;;9.48;;
583;SDS011;27024;54.068;12.116;2024-02-15T10:21:23;25.85;;;9.95;;
583;SDS011;27024;54.068;12.116;2024-02-15T10:24:05;26.55;;;8.55;;
583;SDS011;27024;54.068;12.116;2024-02-15T10:26:34;26.23;;;8.23;;
583;SDS011;27024;54.068;12.116;2024-02-15T10:29:06;23.60;;;8.93;;
583;SDS011;27024;54.068;12.116;2024-02-15T10:31:39;23.13;;;9.40;;
583;SDS011;27024;54.068;12.116;2024-02-15T10:34:08;21.25;;;8.10;;
583;SDS011;27024;54.068;12.116;2024-02-15T10:36:37;21.13;;;7.80;;
583;SDS011;27024;54.068;12.116;2024-02-15T10:39:14;22.67;;;8.57;;
583;SDS011;27024;54.068;12.116;2024-02-15T10:41:47;20.27;;;7.85;;
583;SDS011;27024;54.068;12.116;2024-02-15T10:44:20;22.70;;;8.13;;
583;SDS011;27024;54.068;12.116;2024-02-15T10:46:49;22.20;;;7.68;;
583;SDS011;27024;54.068;12.116;2024-02-15T10:49:24;17.67;;;7.28;;
583;SDS011;27024;54.068;12.116;2024-02-15T10:51:55;20.70;;;8.18;;
583;SDS011;27024;54.068;12.116;2024-02-15T10:57:04;23.15;;;8.95;;
583;SDS011;27024;54.068;12.116;2024-02-15T10:59:34;23.35;;;8.00;;
583;SDS011;27024;54.068;12.116;2024-02-15T11:05:14;20.60;;;7.95;;
583;SDS011;27024;54.068;12.116;2024-02-15T11:07:48;20.58;;;7.72;;
583;SDS011;27024;54.068;12.116;2024-02-15T11:10:15;20.02;;;7.03;;
583;SDS011;27024;54.068;12.116;2024-02-15T11:12:43;19.40;;;7.57;;
583;SDS011;27024;54.068;12.116;2024-02-15T11:18:05;21.02;;;7.47;;
583;SDS011;27024;54.068;12.116;2024-02-15T11:23:03;20.10;;;7.55;;
583;SDS011;27024;54.068;12.116;2024-02-15T11:25:33;22.30;;;7.97;;
583;SDS011;27024;54.068;12.116;2024-02-15T11:30:55;17.90;;;6.88;;
583;SDS011;27024;54.068;12.116;2024-02-15T11:33:29;17.08;;;6.68;;
583;SDS011;27024;54.068;12.116;2024-02-15T11:36:10;20.38;;;8.13;;
583;SDS011;27024;54.068;12.116;2024-02-15T11:38:39;20.95;;;7.18;;
583;SDS011;27024;54.068;12.116;2024-02-15T11:41:11;18.38;;;7.00;;
583;SDS011;27024;54.068;12.116;2024-02-15T11:43:45;17.45;;;6.60;;
583;SDS011;27024;54.068;12.116;2024-02-15T11:46:24;18.95;;;7.53;;
583;SDS011;27024;54.068;12.116;2024-02-15T11:48:58;17.95;;;7.78;;
583;SDS011;27024;54.068;12.116;2024-02-15T11:51:34;19.75;;;7.85;;
583;SDS011;27024;54.068;12.116;2024-02-15T11:54:10;17.40;;;6.57;;
583;SDS011;27024;54.068;12.116;2024-02-15T11:56:49;13.35;;;5.70;;
583;SDS011;27024;54.068;12.116;2024-02-15T11:59:21;16.25;;;6.03;;
583;SDS011;27024;54.068;12.116;2024-02-15T12:02:09;16.23;;;6.90;;
583;SDS011;27024;54.068;12.116;2024-02-15T12:04:55;16.63;;;6.65;;
583;SDS011;27024;54.068;12.116;2024-02-15T12:08:00;12.98;;;5.82;;
583;SDS011;27024;54.068;12.116;2024-02-15T12:10:56;15.27;;;7.15;;
583;SDS011;27024;54.068;12.116;2024-02-15T12:13:54;16.10;;;6.22;;
583;SDS011;27024;54.068;12.116;2024-02-15T12:16:40;14.60;;;5.68;;
583;SDS011;27024;54.068;12.116;2024-02-15T12:19:25;16.42;;;6.80;;
583;SDS011;27024;54.068;12.116;2024-02-15T12:21:52;14.88;;;6.45;;
583;SDS011;27024;54.068;12.116;2024-02-15T12:24:21;17.55;;;6.13;;
583;SDS011;27024;54.068;12.116;2024-02-15T12:26:59;15.80;;;6.25;;
583;SDS011;27024;54.068;12.116;2024-02-15T12:29:28;19.05;;;6.82;;
583;SDS011;27024;54.068;12.116;2024-02-15T12:31:56;18.70;;;6.82;;
583;SDS011;27024;54.068;12.116;2024-02-15T12:34:23;16.13;;;7.03;;
583;SDS011;27024;54.068;12.116;2024-02-15T12:36:50;16.13;;;7.05;;
583;SDS011;27024;54.068;12.116;2024-02-15T12:39:31;14.48;;;5.85;;
583;SDS011;27024;54.068;12.116;2024-02-15T12:41:58;14.90;;;6.15;;
583;SDS011;27024;54.068;12.116;2024-02-15T12:44:25;15.00;;;6.70;;
583;SDS011;27024;54.068;12.116;2024-02-15T12:46:56;15.57;;;6.60;;
583;SDS011;27024;54.068;12.116;2024-02-15T12:51:54;17.08;;;6.78;;
583;SDS011;27024;54.068;12.116;2024-02-15T12:55:06;16.85;;;6.50;;
583;SDS011;27024;54.068;12.116;2024-02-15T12:57:35;13.23;;;5.43;;
583;SDS011;27024;54.068;12.116;2024-02-15T13:00:03;12.35;;;5.78;;
583;SDS011;27024;54.068;12.116;2024-02-15T13:02:39;11.90;;;5.45;;
583;SDS011;27024;54.068;12.116;2024-02-15T13:05:07;12.70;;;5.53;;
583;SDS011;27024;54.068;12.116;2024-02-15T13:07:38;10.48;;;5.10;;
583;SDS011;27024;54.068;12.116;2024-02-15T13:10:05;11.50;;;4.93;;
583;SDS011;27024;54.068;12.116;2024-02-15T13:12:34;11.52;;;5.00;;
583;SDS011;27024;54.068;12.116;2024-02-15T13:15:03;11.15;;;5.35;;
583;SDS011;27024;54.068;12.116;2024-02-15T13:17:32;10.77;;;5.45;;
583;SDS011;27024;54.068;12.116;2024-02-15T13:20:03;10.95;;;5.72;;
583;SDS011;27024;54.068;12.116;2024-02-15T13:22:31;13.13;;;5.82;;
583;SDS011;27024;54.068;12.116;2024-02-15T13:24:59;15.07;;;5.80;;
583;SDS011;27024;54.068;12.116;2024-02-15T13:27:27;14.15;;;5.78;;
583;SDS011;27024;54.068;12.116;2024-02-15T13:29:54;12.82;;;7.47;;
583;SDS011;27024;54.068;12.116;2024-02-15T13:32:21;13.82;;;6.32;;
583;SDS011;27024;54.068;12.116;2024-02-15T13:34:48;13.52;;;6.63;;
583;SDS011;27024;54.068;12.116;2024-02-15T13:37:21;15.18;;;7.13;;
583;SDS011;27024;54.068;12.116;2024-02-15T13:39:50;14.00;;;6.47;;
583;SDS011;27024;54.068;12.116;2024-02-15T13:42:17;15.50;;;7.10;;
583;SDS011;27024;54.068;12.116;2024-02-15T13:44:45;14.80;;;7.25;;
583;SDS011;27024;54.068;12.116;2024-02-15T13:47:16;14.45;;;7.38;;
583;SDS011;27024;54.068;12.116;2024-02-15T13:49:43;15.23;;;7.45;;
583;SDS011;27024;54.068;12.116;2024-02-15T13:52:10;14.20;;;6.63;;
583;SDS011;27024;54.068;12.116;2024-02-15T13:54:38;14.20;;;6.75;;
583;SDS011;27024;54.068;12.116;2024-02-15T13:57:05;13.88;;;7.00;;
583;SDS011;27024;54.068;12.116;2024-02-15T13:59:34;14.52;;;6.97;;
583;SDS011;27024;54.068;12.116;2024-02-15T14:02:01;13.88;;;6.55;;
583;SDS011;27024;54.068;12.116;2024-02-15T14:04:30;14.27;;;6.90;;
583;SDS011;27024;54.068;12.116;2024-02-15T14:06:59;15.68;;;7.28;;
583;SDS011;27024;54.068;12.116;2024-02-15T14:09:27;14.35;;;6.88;;
583;SDS011;27024;54.068;12.116;2024-02-15T14:11:54;13.88;;;6.90;;
583;SDS011;27024;54.068;12.116;2024-02-15T14:14:21;14.85;;;8.02;;
583;SDS011;27024;54.068;12.116;2024-02-15T14:16:49;14.80;;;7.40;;
583;SDS011;27024;54.068;12.116;2024-02-15T14:19:15;15.02;;;7.70;;
583;SDS011;27024;54.068;12.116;2024-02-15T14:21:44;16.85;;;7.00;;
583;SDS011;27024;54.068;12.116;2024-02-15T14:24:11;12.65;;;6.85;;
583;SDS011;27024;54.068;12.116;2024-02-15T14:26:40;13.98;;;7.15;;
583;SDS011;27024;54.068;12.116;2024-02-15T14:29:07;13.77;;;6.60;;
583;SDS011;27024;54.068;12.116;2024-02-15T14:31:36;16.70;;;7.38;;
583;SDS011;27024;54.068;12.116;2024-02-15T14:34:21;14.05;;;6.65;;
583;SDS011;27024;54.068;12.116;2024-02-15T14:36:51;14.73;;;6.65;;
583;SDS011;27024;54.068;12.116;2024-02-15T14:39:18;14.65;;;6.85;;
583;SDS011;27024;54.068;12.116;2024-02-15T14:41:46;15.23;;;7.30;;
583;SDS011;27024;54.068;12.116;2024-02-15T14:44:16;15.25;;;7.45;;
583;SDS011;27024;54.068;12.116;2024-02-15T14:46:43;15.80;;;7.43;;
583;SDS011;27024;54.068;12.116;2024-02-15T14:49:10;14.80;;;7.72;;
583;SDS011;27024;54.068;12.116;2024-02-15T14:51:38;14.73;;;7.47;;
583;SDS011;27024;54.068;12.116;2024-02-15T14:54:06;18.40;;;8.10;;
583;SDS011;27024;54.068;12.116;2024-02-15T14:56:33;16.20;;;8.02;;
583;SDS011;27024;54.068;12.116;2024-02-15T14:59:04;15.75;;;7.93;;
583;SDS011;27024;54.068;12.116;2024-02-15T15:01:31;15.85;;;7.30;;
583;SDS011;27024;54.068;12.116;2024-02-15T15:03:59;17.95;;;8.20;;
583;SDS011;27024;54.068;12.116;2024-02-15T15:06:30;21.05;;;7.93;;
583;SDS011;27024;54.068;12.116;2024-02-15T15:09:16;20.00;;;7.75;;
583;SDS011;27024;54.068;12.116;2024-02-15T15:12:02;19.15;;;8.13;;
583;SDS011;27024;54.068;12.116;2024-02-15T15:14:47;16.67;;;7.45;;
583;SDS011;27024;54.068;12.116;2024-02-15T15:17:15;16.35;;;7.80;;
583;SDS011;27024;54.068;12.116;2024-02-15T15:19:44;18.67;;;8.73;;
583;SDS011;27024;54.068;12.116;2024-02-15T15:22:11;17.80;;;8.43;;